createdAt,value
2018-07-11T00:01:30.561Z,79.69
2018-07-11T00:04:00.523Z,79.40
2018-07-11T00:06:30.988Z,78.83
2018-07-11T00:09:01.320Z,79.22
2018-07-11T00:11:31.508Z,78.51
2018-07-11T00:14:01.551Z,78.67
2018-07-11T00:16:31.454Z,79.20
2018-07-11T00:19:01.407Z,79.57
2018-07-11T00:21:31.354Z,80.37
2018-07-11T00:24:01.263Z,80.41
2018-07-11T00:26:31.200Z,80.25
2018-07-11T00:29:01.364Z,79.78
2018-07-11T00:31:31.265Z,80.83
2018-07-11T00:34:02.209Z,80.89
2018-07-11T00:36:32.460Z,80.71
2018-07-11T00:39:02.726Z,80.96
2018-07-11T00:41:32.709Z,80.38
2018-07-11T00:44:02.995Z,79.36
2018-07-11T00:46:32.975Z,80.19
2018-07-11T00:49:02.989Z,80.82
2018-07-11T00:51:34.360Z,81.12
2018-07-11T00:54:04.494Z,80.84
2018-07-11T00:56:34.820Z,80.87
2018-07-11T00:59:24.547Z,80.11
2018-07-11T01:01:57.547Z,81.53
2018-07-11T01:04:27.546Z,81.05
2018-07-11T01:06:57.746Z,80.88
2018-07-11T01:09:28.129Z,80.72
2018-07-11T01:11:58.097Z,81.87
2018-07-11T01:14:28.309Z,79.85
2018-07-11T01:16:58.358Z,80.58
2018-07-11T01:19:28.918Z,80.27
2018-07-11T01:22:04.856Z,82.79
2018-07-11T01:24:34.767Z,81.23
2018-07-11T01:27:04.698Z,82.18
2018-07-11T01:29:35.138Z,79.56
2018-07-11T01:32:05.481Z,78.68
2018-07-11T01:34:36.343Z,78.50
2018-07-11T01:37:06.725Z,76.78
2018-07-11T01:39:37.118Z,78.83
2018-07-11T01:42:06.981Z,81.01
2018-07-11T01:44:36.891Z,80.44
2018-07-11T01:47:07.323Z,78.56
2018-07-11T01:49:37.546Z,79.46
2018-07-11T01:52:23.966Z,78.98
2018-07-11T01:54:54.271Z,80.20
2018-07-11T01:57:24.827Z,79.29
2018-07-11T01:59:54.931Z,81.33
2018-07-11T02:02:26.331Z,80.61
2018-07-11T02:04:57.032Z,78.41
2018-07-11T02:07:26.968Z,82.73
2018-07-11T02:09:56.923Z,78.08
2018-07-11T02:12:26.946Z,78.00
2018-07-11T02:15:02.106Z,76.12
2018-07-11T02:17:32.054Z,78.40
2018-07-11T02:20:02.126Z,80.22
2018-07-11T02:22:32.164Z,81.27
2018-07-11T02:25:03.516Z,79.02
2018-07-11T02:27:34.297Z,78.60
2018-07-11T02:30:05.064Z,81.23
2018-07-11T02:32:35.121Z,81.91
2018-07-11T02:35:05.468Z,78.37
2018-07-11T02:37:35.886Z,77.97
2018-07-11T02:40:06.307Z,75.98
2018-07-11T02:42:36.807Z,77.08
2018-07-11T02:45:06.708Z,79.61
2018-07-11T02:47:42.527Z,82.62
2018-07-11T02:50:13.445Z,80.16
2018-07-11T02:52:43.836Z,81.92
2018-07-11T02:55:13.627Z,80.41
2018-07-11T02:57:43.809Z,79.92
2018-07-11T03:00:13.921Z,78.17
2018-07-11T03:02:44.207Z,77.62
2018-07-11T03:05:14.698Z,77.03
2018-07-11T03:07:44.995Z,76.80
2018-07-11T03:10:15.201Z,76.85
2018-07-11T03:12:45.519Z,76.12
2018-07-11T03:15:16.138Z,75.87
2018-07-11T03:17:46.113Z,80.40
2018-07-11T03:20:16.329Z,80.86
2018-07-11T03:22:46.560Z,81.27
2018-07-11T03:25:16.459Z,81.08
2018-07-11T03:27:47.117Z,79.92
2018-07-11T03:30:17.419Z,81.18
2018-07-11T03:32:47.340Z,82.94
2018-07-11T03:35:17.512Z,83.90
2018-07-11T03:37:47.644Z,82.34
2018-07-11T03:40:17.611Z,79.96
2018-07-11T03:42:48.013Z,78.79
2018-07-11T03:45:18.905Z,79.23
2018-07-11T03:47:48.947Z,78.06
2018-07-11T03:50:19.042Z,77.28
2018-07-11T03:52:49.259Z,76.87
2018-07-11T03:55:19.523Z,78.29
2018-07-11T03:57:49.333Z,81.25
2018-07-11T04:00:19.460Z,83.40
2018-07-11T04:02:50.549Z,81.59
2018-07-11T04:05:20.820Z,82.50
2018-07-11T04:07:50.748Z,84.58
2018-07-11T04:10:20.669Z,84.30
2018-07-11T04:13:01.399Z,83.20
2018-07-11T04:15:31.283Z,81.55
2018-07-11T04:18:01.441Z,79.99
2018-07-11T04:20:31.387Z,78.53
2018-07-11T04:23:01.761Z,77.13
2018-07-11T04:25:31.964Z,77.29
2018-07-11T04:28:02.544Z,78.16
2018-07-11T04:30:32.592Z,83.88
2018-07-11T04:33:02.588Z,82.10
2018-07-11T04:35:32.506Z,79.56
2018-07-11T04:38:02.946Z,79.37
2018-07-11T04:40:33.321Z,81.56
2018-07-11T04:43:03.408Z,80.75
2018-07-11T04:45:33.916Z,79.45
2018-07-11T04:48:04.090Z,80.73
2018-07-11T04:50:34.451Z,83.40
2018-07-11T04:53:11.616Z,83.92
2018-07-11T04:55:43.758Z,81.31
2018-07-11T04:58:13.864Z,82.66
2018-07-11T05:00:43.967Z,82.93
2018-07-11T05:03:14.152Z,83.65
2018-07-11T05:05:44.224Z,82.36
2018-07-11T05:08:14.408Z,81.37
2018-07-11T05:10:44.360Z,81.49
2018-07-11T05:13:14.475Z,80.86
2018-07-11T05:15:44.517Z,82.23
2018-07-11T05:18:15.157Z,81.82
2018-07-11T05:20:46.084Z,80.49
2018-07-11T05:23:16.332Z,80.49
2018-07-11T05:25:46.563Z,80.45
2018-07-11T05:28:16.392Z,79.35
2018-07-11T05:30:46.613Z,78.42
2018-07-11T05:33:16.731Z,81.83
2018-07-11T05:35:47.081Z,83.48
2018-07-11T05:38:17.249Z,80.99
2018-07-11T05:40:47.279Z,80.96
2018-07-11T05:43:19.009Z,79.66
2018-07-11T05:45:49.063Z,78.90
2018-07-11T05:48:19.040Z,82.81
2018-07-11T05:50:48.952Z,80.93
2018-07-11T05:53:19.009Z,80.75
2018-07-11T05:55:49.171Z,80.70
2018-07-11T05:58:19.123Z,79.77
2018-07-11T06:00:49.840Z,82.13
2018-07-11T06:03:19.907Z,81.60
2018-07-11T06:05:50.069Z,80.48
2018-07-11T06:08:20.054Z,79.88
2018-07-11T06:10:50.344Z,82.68
2018-07-11T06:13:20.230Z,82.16
2018-07-11T06:15:51.617Z,82.68
2018-07-11T06:18:22.996Z,82.32
2018-07-11T06:20:52.980Z,82.03
2018-07-11T06:23:22.973Z,82.90
2018-07-11T06:25:53.172Z,81.12
2018-07-11T06:28:23.337Z,81.23
2018-07-11T06:30:53.242Z,81.90
2018-07-11T06:33:23.129Z,80.81
2018-07-11T06:35:52.924Z,80.34
2018-07-11T06:38:22.820Z,80.48
2018-07-11T06:40:52.719Z,81.04
2018-07-11T06:43:22.559Z,81.53
2018-07-11T06:45:53.082Z,81.49
2018-07-11T06:48:23.639Z,80.63
2018-07-11T06:50:53.853Z,80.40
2018-07-11T06:53:24.171Z,80.74
2018-07-11T06:55:54.008Z,80.47
2018-07-11T06:58:24.304Z,80.59
2018-07-11T07:00:55.898Z,80.03
2018-07-11T07:03:25.863Z,79.82
2018-07-11T07:05:55.747Z,80.36
2018-07-11T07:08:25.651Z,79.95
2018-07-11T07:10:55.915Z,79.75
2018-07-11T07:13:25.716Z,79.75
2018-07-11T07:15:57.174Z,79.46
2018-07-11T07:18:27.176Z,78.34
2018-07-11T07:20:57.428Z,77.38
2018-07-11T07:23:28.127Z,78.17
2018-07-11T07:25:58.197Z,76.57
2018-07-11T07:28:28.395Z,76.25
2018-07-11T07:30:58.302Z,76.90
2018-07-11T07:33:28.313Z,77.41
2018-07-11T07:35:58.464Z,77.05
2018-07-11T07:38:29.988Z,76.40
2018-07-11T07:41:00.268Z,76.45
2018-07-11T07:43:30.573Z,76.79
2018-07-11T07:46:01.270Z,75.19
2018-07-11T07:48:31.992Z,76.13
2018-07-11T07:51:02.282Z,74.65
2018-07-11T07:53:32.908Z,74.44
2018-07-11T07:56:03.015Z,76.30
2018-07-11T07:58:33.431Z,75.15
2018-07-11T08:01:03.490Z,76.03
2018-07-11T08:03:36.519Z,73.03
2018-07-11T08:06:07.983Z,72.56
2018-07-11T08:08:38.197Z,72.81
2018-07-11T08:11:08.255Z,73.33
2018-07-11T08:13:38.123Z,72.46
2018-07-11T08:16:07.951Z,72.24
2018-07-11T08:18:37.866Z,72.04
2018-07-11T08:21:08.655Z,72.81
2018-07-11T08:23:55.032Z,71.72
2018-07-11T08:26:41.520Z,73.10
2018-07-11T08:32:16.591Z,70.85
2018-07-11T08:39:10.844Z,70.88
2018-07-11T08:45:59.739Z,70.67
2018-07-11T08:51:53.114Z,70.19
2018-07-11T08:57:40.090Z,68.22
2018-07-11T09:01:29.858Z,66.10
2018-07-11T09:04:20.223Z,67.50
2018-07-11T09:07:06.673Z,66.38
2018-07-11T09:09:51.787Z,66.37
2018-07-11T09:12:37.087Z,65.53
2018-07-11T09:16:38.271Z,66.77
2018-07-11T09:19:43.959Z,65.67
2018-07-11T09:22:46.526Z,65.45
2018-07-11T09:25:16.787Z,65.81
2018-07-11T09:27:46.510Z,64.75
2018-07-11T09:30:16.383Z,63.60
2018-07-11T09:32:46.247Z,64.34
2018-07-11T09:35:16.183Z,63.67
2018-07-11T09:37:46.008Z,63.09
2018-07-11T09:40:15.908Z,62.47
2018-07-11T09:42:45.779Z,63.03
2018-07-11T09:45:16.121Z,63.81
2018-07-11T09:47:46.083Z,62.61
2018-07-11T09:50:16.438Z,63.29
2018-07-11T09:52:46.359Z,60.74
2018-07-11T09:55:16.781Z,61.08
2018-07-11T09:57:46.966Z,61.53
2018-07-11T10:02:25.363Z,61.44
2018-07-11T10:04:55.371Z,61.14
2018-07-11T10:07:25.498Z,59.91
2018-07-11T10:09:55.390Z,60.89
2018-07-11T10:12:25.425Z,60.31
2018-07-11T10:14:55.206Z,60.45
2018-07-11T10:17:25.008Z,59.56
2018-07-11T10:19:55.064Z,60.28
2018-07-11T10:22:24.873Z,60.48
2018-07-11T10:24:54.840Z,59.99
2018-07-11T10:27:24.693Z,59.64
2018-07-11T10:29:54.882Z,59.66
2018-07-11T10:32:24.791Z,60.26
2018-07-11T10:34:54.748Z,59.36
2018-07-11T10:37:24.856Z,59.86
2018-07-11T10:39:54.906Z,59.53
2018-07-11T10:42:25.021Z,59.57
2018-07-11T10:44:54.997Z,57.98
2018-07-11T10:47:25.164Z,59.66
2018-07-11T10:49:55.227Z,57.44
2018-07-11T10:52:25.487Z,58.47
2018-07-11T10:54:55.640Z,56.12
2018-07-11T10:57:25.623Z,57.24
2018-07-11T10:59:55.610Z,58.20
2018-07-11T11:02:25.435Z,57.66
2018-07-11T11:04:55.431Z,57.62
2018-07-11T11:07:25.463Z,58.18
2018-07-11T11:09:55.437Z,59.15
2018-07-11T11:12:25.383Z,59.47
2018-07-11T11:14:55.498Z,58.58
2018-07-11T11:17:25.460Z,58.61
2018-07-11T11:19:55.728Z,58.75
2018-07-11T11:22:25.890Z,59.17
2018-07-11T11:24:55.713Z,59.06
2018-07-11T11:27:25.656Z,58.32
2018-07-11T11:29:55.591Z,57.76
2018-07-11T11:32:26.377Z,58.66
2018-07-11T11:34:56.262Z,57.97
2018-07-11T11:37:26.463Z,57.07
2018-07-11T11:39:56.316Z,57.39
2018-07-11T11:42:26.557Z,58.83
2018-07-11T11:44:56.147Z,58.60
2018-07-11T11:47:26.039Z,58.55
2018-07-11T11:49:56.987Z,59.46
2018-07-11T11:52:26.839Z,60.38
2018-07-11T11:54:56.824Z,59.84
2018-07-11T11:57:26.783Z,60.53
2018-07-11T11:59:57.077Z,60.73
2018-07-11T12:02:27.133Z,62.67
2018-07-11T12:04:57.538Z,62.18
2018-07-11T12:07:27.502Z,62.66
2018-07-11T12:09:57.251Z,67.56
2018-07-11T12:12:27.221Z,71.53
2018-07-11T12:14:57.099Z,71.32
2018-07-11T12:17:26.869Z,71.61
2018-07-11T12:19:56.792Z,71.01
2018-07-11T12:22:27.336Z,73.00
2018-07-11T12:24:57.275Z,70.59
2018-07-11T12:27:27.278Z,71.51
2018-07-11T12:29:57.259Z,71.93
2018-07-11T12:32:27.294Z,74.98
2018-07-11T12:34:57.155Z,71.87
2018-07-11T12:37:27.277Z,70.10
2018-07-11T12:39:57.187Z,68.23
2018-07-11T12:42:27.175Z,68.40
2018-07-11T12:44:57.622Z,67.38
2018-07-11T12:47:32.686Z,67.87
2018-07-11T12:50:02.611Z,73.27
2018-07-11T12:52:32.571Z,78.15
2018-07-11T12:55:02.570Z,79.63
2018-07-11T12:57:32.520Z,77.60
2018-07-11T13:00:02.487Z,78.00
2018-07-11T13:02:33.456Z,76.90
2018-07-11T13:05:03.655Z,78.59
2018-07-11T13:07:33.702Z,78.46
2018-07-11T13:10:03.594Z,76.76
2018-07-11T13:12:33.473Z,73.86
2018-07-11T13:15:03.361Z,75.27
2018-07-11T13:17:33.194Z,74.57
2018-07-11T13:20:03.099Z,74.14
2018-07-11T13:22:33.007Z,72.74
2018-07-11T13:25:02.926Z,75.03
2018-07-11T13:27:32.835Z,74.57
2018-07-11T13:30:02.643Z,72.58
2018-07-11T13:32:32.412Z,73.39
2018-07-11T13:35:02.378Z,73.29
2018-07-11T13:37:32.359Z,72.85
2018-07-11T13:40:02.237Z,72.58
2018-07-11T13:42:32.184Z,71.60
2018-07-11T13:45:02.019Z,70.52
2018-07-11T13:47:31.758Z,70.33
2018-07-11T13:50:01.644Z,71.15
2018-07-11T13:52:31.728Z,71.60
2018-07-11T13:55:01.540Z,73.02
2018-07-11T13:57:31.446Z,73.25
2018-07-11T14:00:01.433Z,73.04
2018-07-11T14:02:31.906Z,75.35
2018-07-11T14:05:01.754Z,78.26
2018-07-11T14:07:31.650Z,81.87
2018-07-11T14:10:01.893Z,79.67
2018-07-11T14:12:31.934Z,83.87
2018-07-11T14:15:01.984Z,82.88
2018-07-11T14:17:31.791Z,82.28
2018-07-11T14:20:01.647Z,83.27
2018-07-11T14:22:31.523Z,83.48
2018-07-11T14:25:01.915Z,81.57
2018-07-11T14:27:36.154Z,81.42
2018-07-11T14:30:06.039Z,82.26
2018-07-11T14:32:36.015Z,82.21
2018-07-11T14:35:05.990Z,82.61
2018-07-11T14:37:35.766Z,80.78
2018-07-11T14:40:05.709Z,83.07
2018-07-11T14:42:36.029Z,82.27
2018-07-11T14:45:05.971Z,81.22
2018-07-11T14:47:40.774Z,79.96
2018-07-11T14:50:10.623Z,79.38
2018-07-11T14:52:40.472Z,77.70
2018-07-11T14:55:10.419Z,78.19
2018-07-11T14:57:40.214Z,80.38
2018-07-11T15:00:10.265Z,81.30
2018-07-11T15:02:40.089Z,81.10
2018-07-11T15:05:09.861Z,82.36
2018-07-11T15:07:39.646Z,82.37
2018-07-11T15:10:09.411Z,83.53
2018-07-11T15:12:39.546Z,82.05
2018-07-11T15:15:09.751Z,80.88
2018-07-11T15:17:39.570Z,80.14
2018-07-11T15:20:09.714Z,78.74
2018-07-11T15:22:39.602Z,79.67
2018-07-11T15:25:09.426Z,83.00
2018-07-11T15:27:39.266Z,82.92
2018-07-11T15:30:09.214Z,83.59
2018-07-11T15:32:39.261Z,82.40
2018-07-11T15:35:09.238Z,81.01
2018-07-11T15:37:39.322Z,79.53
2018-07-11T15:40:09.162Z,83.40
2018-07-11T15:42:39.055Z,84.52
2018-07-11T15:45:09.034Z,85.56
2018-07-11T15:47:42.975Z,84.92
2018-07-11T15:50:12.869Z,83.29
2018-07-11T15:52:42.738Z,85.95
2018-07-11T15:55:12.679Z,84.30
2018-07-11T15:57:52.194Z,84.18
2018-07-11T16:00:29.911Z,81.84
2018-07-11T16:03:03.383Z,81.81
2018-07-11T16:05:33.637Z,82.74
2018-07-11T16:08:05.841Z,81.61
2018-07-11T16:10:46.985Z,83.75
2018-07-11T16:16:10.163Z,84.27
2018-07-11T16:18:40.293Z,81.61
2018-07-11T16:21:10.134Z,84.17
2018-07-11T16:23:40.143Z,83.25
2018-07-11T16:26:10.007Z,83.31
2018-07-11T16:28:40.598Z,84.22
2018-07-11T16:31:10.418Z,82.38
2018-07-11T16:33:40.385Z,84.36
2018-07-11T16:36:10.179Z,82.27
2018-07-11T16:38:42.213Z,83.99
2018-07-11T16:41:12.172Z,81.71
2018-07-11T16:43:42.102Z,85.17
2018-07-11T16:46:12.319Z,82.58
2018-07-11T16:48:42.324Z,83.03
2018-07-11T16:51:12.161Z,83.04
2018-07-11T16:53:42.139Z,83.73
2018-07-11T16:56:12.044Z,84.22
2018-07-11T16:58:52.431Z,82.61
2018-07-11T17:01:30.284Z,83.60
2018-07-11T17:04:00.512Z,84.57
2018-07-11T17:06:30.531Z,86.45
2018-07-11T17:09:01.561Z,83.41
2018-07-11T17:11:31.539Z,83.57
2018-07-11T17:14:03.456Z,85.17
2018-07-11T17:16:45.077Z,85.83
2018-07-11T17:19:22.082Z,85.97
2018-07-11T17:21:52.015Z,83.29
2018-07-11T17:24:22.722Z,85.77
2018-07-11T17:26:56.717Z,84.86
2018-07-11T17:29:30.316Z,84.74
2018-07-11T17:32:11.061Z,85.63
2018-07-11T17:34:41.262Z,84.34
2018-07-11T17:37:11.943Z,85.60
2018-07-11T17:39:53.366Z,84.57
2018-07-11T17:42:26.802Z,86.40
2018-07-11T17:45:18.113Z,86.67
2018-07-11T17:48:06.698Z,84.78
2018-07-11T17:50:38.066Z,85.30
2018-07-11T17:53:18.768Z,84.38
2018-07-11T17:56:13.219Z,83.93
2018-07-11T17:58:58.083Z,84.79
2018-07-11T18:01:38.736Z,82.97
2018-07-11T18:04:36.759Z,85.35
2018-07-11T18:07:15.383Z,86.89
2018-07-11T18:09:57.091Z,87.10
2018-07-11T18:12:34.123Z,84.90
2018-07-11T18:15:24.270Z,85.62
2018-07-11T18:20:31.113Z,85.95
2018-07-11T18:23:33.611Z,86.06
2018-07-11T18:26:16.675Z,83.34
2018-07-11T18:29:02.413Z,84.57
2018-07-11T18:33:50.710Z,83.10
2018-07-11T18:36:38.253Z,84.75
2018-07-11T18:41:33.493Z,83.85
2018-07-11T18:44:21.850Z,85.00
2018-07-11T18:47:08.727Z,83.17
2018-07-11T18:50:14.882Z,83.32
2018-07-11T18:52:53.599Z,83.59
2018-07-11T18:55:40.501Z,85.83
2018-07-11T19:00:40.903Z,84.14
2018-07-11T19:03:28.395Z,88.86
2018-07-11T19:08:24.882Z,86.66
2018-07-11T19:11:09.576Z,89.44
2018-07-11T19:13:46.905Z,87.76
2018-07-11T19:16:55.213Z,87.51
2018-07-11T19:19:37.523Z,89.74
2018-07-11T19:24:24.942Z,88.60
2018-07-11T19:27:06.587Z,88.18
2018-07-11T19:33:52.135Z,88.97
2018-07-11T19:37:37.098Z,89.55
2018-07-11T19:40:19.967Z,90.00
2018-07-11T19:47:06.807Z,90.05
2018-07-11T19:50:22.606Z,89.95
2018-07-11T19:53:10.194Z,90.68
2018-07-11T19:56:46.456Z,90.62
2018-07-11T19:59:16.497Z,89.64
2018-07-11T20:01:47.066Z,89.78
2018-07-11T20:04:16.892Z,89.43
2018-07-11T20:06:46.745Z,87.90
2018-07-11T20:09:16.639Z,88.62
2018-07-11T20:11:46.464Z,88.57
2018-07-11T20:14:16.392Z,88.40
2018-07-11T20:16:46.318Z,89.06
2018-07-11T20:19:16.238Z,88.46
2018-07-11T20:21:46.125Z,88.29
2018-07-11T20:24:15.947Z,87.58
2018-07-11T20:26:46.935Z,86.83
2018-07-11T20:29:16.748Z,88.03
2018-07-11T20:31:46.638Z,87.06
2018-07-11T20:34:16.552Z,87.17
2018-07-11T20:36:46.366Z,87.56
2018-07-11T20:39:16.147Z,88.52
2018-07-11T20:41:46.168Z,88.45
2018-07-11T20:44:16.040Z,88.27
2018-07-11T20:46:46.005Z,88.84
2018-07-11T20:49:20.934Z,88.00
2018-07-11T20:51:50.743Z,87.75
2018-07-11T20:54:20.788Z,87.24
2018-07-11T20:56:50.706Z,86.49
2018-07-11T20:59:36.828Z,87.13
2018-07-11T21:04:30.807Z,87.12
2018-07-11T21:10:26.314Z,89.55
2018-07-11T21:13:24.088Z,90.87
2018-07-11T21:18:19.826Z,89.01
2018-07-11T21:20:49.734Z,86.91
2018-07-11T21:23:19.494Z,88.49
2018-07-11T21:25:49.380Z,86.96
2018-07-11T21:28:21.451Z,88.34
2018-07-11T21:30:51.464Z,88.45
2018-07-11T21:33:21.289Z,87.76
2018-07-11T21:35:51.018Z,86.35
2018-07-11T21:38:21.107Z,86.15
2018-07-11T21:40:51.005Z,86.40
2018-07-11T21:43:20.917Z,84.45
2018-07-11T21:45:50.858Z,84.96
2018-07-11T21:48:22.052Z,87.78
2018-07-11T21:50:51.743Z,85.36
2018-07-11T21:53:21.578Z,85.43
2018-07-11T21:55:51.432Z,85.16
2018-07-11T21:58:21.338Z,85.27
2018-07-11T22:00:51.194Z,86.37
2018-07-11T22:03:21.022Z,86.89
2018-07-11T22:05:50.831Z,87.86
2018-07-11T22:08:20.642Z,88.09
2018-07-11T22:10:50.468Z,88.14
2018-07-11T22:13:20.215Z,87.39
2018-07-11T22:15:50.206Z,89.77
2018-07-11T22:18:36.735Z,89.94
2018-07-11T22:21:05.531Z,88.27
2018-07-11T22:23:33.405Z,89.43
2018-07-11T22:26:01.490Z,88.18
2018-07-11T22:28:30.081Z,89.58
2018-07-11T22:30:57.973Z,90.11
2018-07-11T22:33:26.974Z,90.09
2018-07-11T22:35:56.056Z,90.31
2018-07-11T22:38:24.994Z,89.66
2018-07-11T22:40:52.895Z,91.74
2018-07-11T22:43:20.760Z,91.37
2018-07-11T22:45:48.794Z,91.28
2018-07-11T22:48:17.228Z,90.63
2018-07-11T22:50:45.693Z,91.26
2018-07-11T22:53:13.618Z,89.57
2018-07-11T22:55:41.656Z,89.68
2018-07-11T22:58:09.509Z,89.20
2018-07-11T23:00:37.404Z,90.09
2018-07-11T23:03:05.385Z,89.99
2018-07-11T23:05:33.391Z,88.05
2018-07-11T23:08:01.293Z,87.46
2018-07-11T23:10:29.167Z,88.17
2018-07-11T23:12:57.783Z,88.19
2018-07-11T23:15:26.193Z,87.33
2018-07-11T23:17:54.080Z,87.03
2018-07-11T23:20:22.395Z,87.53
2018-07-11T23:22:50.226Z,87.77
2018-07-11T23:25:18.203Z,87.47
2018-07-11T23:27:46.066Z,87.73
2018-07-11T23:30:19.414Z,86.61
2018-07-11T23:32:47.666Z,86.46
2018-07-11T23:35:15.526Z,85.81
2018-07-11T23:37:43.726Z,84.93
2018-07-11T23:40:11.630Z,85.58
2018-07-11T23:42:39.521Z,87.85
2018-07-11T23:45:07.440Z,88.31
2018-07-11T23:47:35.298Z,88.88
2018-07-11T23:50:03.190Z,87.55
2018-07-11T23:52:31.073Z,85.99
2018-07-11T23:54:58.985Z,85.62
2018-07-11T23:57:27.787Z,85.17
2018-07-11T23:59:56.602Z,84.26
